createdAt,value
2022-12-03T00:02:16.679Z,15.47
2022-12-03T00:04:45.003Z,12.00
2022-12-03T00:07:12.911Z,12.20
2022-12-03T00:09:40.818Z,12.53
2022-12-03T00:17:11.869Z,13.33
2022-12-03T00:19:40.468Z,31.87
2022-12-03T00:22:08.833Z,12.93
2022-12-03T00:24:36.526Z,21.23
2022-12-03T00:27:03.992Z,15.77
2022-12-03T00:29:31.277Z,14.23
2022-12-03T00:31:59.066Z,13.33
2022-12-03T00:34:27.359Z,13.67
2022-12-03T00:42:00.487Z,11.87
2022-12-03T00:44:27.959Z,11.43
2022-12-03T00:46:56.339Z,11.33
2022-12-03T00:49:23.729Z,11.83
2022-12-03T00:51:51.986Z,12.13
2022-12-03T00:54:19.517Z,13.17
2022-12-03T00:56:47.090Z,11.27
2022-12-03T01:02:24.605Z,12.13
2022-12-03T01:04:52.977Z,10.43
2022-12-03T01:07:20.777Z,9.77
2022-12-03T01:09:48.030Z,10.00
2022-12-03T01:12:15.800Z,10.77
2022-12-03T01:14:43.349Z,9.00
2022-12-03T01:17:10.435Z,10.20
2022-12-03T01:19:43.567Z,10.87
2022-12-03T01:27:19.849Z,10.43
2022-12-03T01:29:47.180Z,11.00
2022-12-03T01:32:18.768Z,10.27
2022-12-03T01:34:47.267Z,10.10
2022-12-03T01:37:16.350Z,8.80
2022-12-03T01:39:44.335Z,8.30
2022-12-03T01:42:16.480Z,10.37
2022-12-03T01:44:46.060Z,9.80
2022-12-03T01:52:16.288Z,12.07
2022-12-03T01:54:46.989Z,9.83
2022-12-03T01:57:30.330Z,8.60
2022-12-03T02:00:00.720Z,8.50
2022-12-03T02:02:32.330Z,9.40
2022-12-03T02:05:36.810Z,8.03
2022-12-03T02:08:28.139Z,8.27
2022-12-03T02:10:55.796Z,7.50
2022-12-03T02:13:23.749Z,8.23
2022-12-03T02:18:33.852Z,7.47
2022-12-03T02:21:07.869Z,8.47
2022-12-03T02:23:41.957Z,7.93
2022-12-03T02:26:11.121Z,8.37
2022-12-03T02:28:38.537Z,7.03
2022-12-03T02:31:06.110Z,8.37
2022-12-03T02:33:33.567Z,7.47
2022-12-03T02:36:03.732Z,7.73
2022-12-03T02:43:37.048Z,8.40
2022-12-03T02:46:07.147Z,7.13
2022-12-03T02:48:37.214Z,8.17
2022-12-03T02:51:07.222Z,7.67
2022-12-03T02:53:38.620Z,7.93
2022-12-03T02:56:07.329Z,7.07
2022-12-03T02:58:36.400Z,6.80
2022-12-03T03:09:03.239Z,7.70
2022-12-03T03:11:31.059Z,7.67
2022-12-03T03:13:58.510Z,7.33
2022-12-03T03:16:26.270Z,7.30
2022-12-03T03:18:54.229Z,8.60
2022-12-03T03:21:24.645Z,7.73
2022-12-03T03:23:51.957Z,8.23
2022-12-03T03:31:28.721Z,7.60
2022-12-03T03:33:56.609Z,7.93
2022-12-03T03:36:24.971Z,8.07
2022-12-03T03:38:52.539Z,8.03
2022-12-03T03:41:22.238Z,7.27
2022-12-03T03:43:51.817Z,8.03
2022-12-03T03:46:20.620Z,8.43
2022-12-03T03:56:37.682Z,8.77
2022-12-03T03:59:05.431Z,7.47
2022-12-03T04:01:33.296Z,7.97
2022-12-03T04:04:00.927Z,7.47
2022-12-03T04:06:29.020Z,8.23
2022-12-03T04:08:56.678Z,6.77
2022-12-03T04:19:44.049Z,7.63
2022-12-03T04:22:29.008Z,6.90
2022-12-03T04:25:16.567Z,8.17
2022-12-03T04:28:02.101Z,8.53
2022-12-03T04:30:30.193Z,9.00
2022-12-03T04:33:29.908Z,7.33
2022-12-03T04:35:58.389Z,7.30
2022-12-03T04:44:22.458Z,7.47
2022-12-03T04:46:49.888Z,7.43
2022-12-03T04:49:17.378Z,7.77
2022-12-03T04:51:45.005Z,7.03
2022-12-03T04:54:12.737Z,7.73
2022-12-03T04:56:40.200Z,7.67
2022-12-03T04:59:14.182Z,8.20
2022-12-03T05:01:43.644Z,7.90
2022-12-03T05:09:16.594Z,7.23
2022-12-03T05:11:44.224Z,9.33
2022-12-03T05:14:12.446Z,8.30
2022-12-03T05:16:40.504Z,7.70
2022-12-03T05:19:09.137Z,8.07
2022-12-03T05:21:36.530Z,8.43
2022-12-03T05:24:04.911Z,8.63
2022-12-03T05:29:16.333Z,9.43
2022-12-03T05:31:43.849Z,8.70
2022-12-03T05:34:11.169Z,8.27
2022-12-03T05:36:38.959Z,8.57
2022-12-03T05:39:09.289Z,8.67
2022-12-03T05:41:54.539Z,10.60
2022-12-03T05:44:23.569Z,9.33
2022-12-03T05:46:51.279Z,9.67
2022-12-03T05:52:23.017Z,8.77
2022-12-03T05:54:50.960Z,9.00
2022-12-03T05:57:19.239Z,9.77
2022-12-03T05:59:46.608Z,9.37
2022-12-03T06:02:14.513Z,10.37
2022-12-03T06:04:41.822Z,9.33
2022-12-03T06:07:13.711Z,9.90
2022-12-03T06:12:21.856Z,8.57
2022-12-03T06:14:49.234Z,10.13
2022-12-03T06:17:16.780Z,8.93
2022-12-03T06:19:44.328Z,9.33
2022-12-03T06:22:11.949Z,9.30
2022-12-03T06:24:39.980Z,9.07
2022-12-03T06:27:07.619Z,9.97
2022-12-03T06:32:17.815Z,10.07
2022-12-03T06:34:45.678Z,10.67
2022-12-03T06:37:13.238Z,10.00
2022-12-03T06:39:40.891Z,9.73
2022-12-03T06:42:08.308Z,10.60
2022-12-03T06:44:36.227Z,10.83
2022-12-03T06:47:04.311Z,9.87
2022-12-03T06:57:29.950Z,10.23
2022-12-03T07:00:00.197Z,9.43
2022-12-03T07:02:28.144Z,12.10
2022-12-03T07:05:01.001Z,10.90
2022-12-03T07:07:28.525Z,12.10
2022-12-03T07:09:56.119Z,9.70
2022-12-03T07:12:24.738Z,10.90
2022-12-03T07:14:53.381Z,11.20
2022-12-03T07:20:26.998Z,10.83
2022-12-03T07:22:57.978Z,11.63
2022-12-03T07:25:26.200Z,11.13
2022-12-03T07:27:53.387Z,10.50
2022-12-03T07:30:21.479Z,10.20
2022-12-03T07:32:52.310Z,12.27
2022-12-03T07:35:22.600Z,9.60
2022-12-03T07:43:27.633Z,11.40
2022-12-03T07:45:56.327Z,11.63
2022-12-03T07:48:23.760Z,12.47
2022-12-03T07:50:51.287Z,11.60
2022-12-03T07:53:18.970Z,11.20
2022-12-03T07:55:49.420Z,11.30
2022-12-03T07:58:16.879Z,11.30
2022-12-03T08:08:33.308Z,13.63
2022-12-03T08:11:02.148Z,13.77
2022-12-03T08:13:33.166Z,11.20
2022-12-03T08:16:13.246Z,13.17
2022-12-03T08:18:44.237Z,13.00
2022-12-03T08:21:21.391Z,14.83
2022-12-03T08:23:52.299Z,14.67
2022-12-03T08:31:33.780Z,14.73
2022-12-03T08:34:21.137Z,12.33
2022-12-03T08:36:53.607Z,15.37
2022-12-03T08:39:33.897Z,13.40
2022-12-03T08:42:31.950Z,15.20
2022-12-03T08:45:21.307Z,14.97
2022-12-03T08:50:43.351Z,14.83
2022-12-03T08:53:29.988Z,14.80
2022-12-03T08:56:00.805Z,15.17
2022-12-03T08:58:38.689Z,15.47
2022-12-03T09:01:35.823Z,14.70
2022-12-03T09:04:22.303Z,14.67
2022-12-03T09:06:55.347Z,15.73
2022-12-03T09:14:31.527Z,15.83
2022-12-03T09:17:01.669Z,15.87
2022-12-03T09:19:33.098Z,15.47
2022-12-03T09:22:01.222Z,14.83
2022-12-03T09:24:31.717Z,15.53
2022-12-03T09:27:07.680Z,16.10
2022-12-03T09:29:43.390Z,16.77
2022-12-03T09:37:22.828Z,16.87
2022-12-03T09:39:53.934Z,14.30
2022-12-03T09:42:25.817Z,15.47
2022-12-03T09:44:55.703Z,13.13
2022-12-03T09:47:26.089Z,15.23
2022-12-03T09:49:54.083Z,14.70
2022-12-03T09:52:30.612Z,16.63
2022-12-03T10:00:18.600Z,14.63
2022-12-03T10:02:50.300Z,16.93
2022-12-03T10:05:20.339Z,15.30
2022-12-03T10:07:50.095Z,15.93
2022-12-03T10:10:21.229Z,16.83
2022-12-03T10:12:53.484Z,15.37
2022-12-03T10:15:29.270Z,16.03
2022-12-03T10:23:10.778Z,15.57
2022-12-03T10:25:54.700Z,15.13
2022-12-03T10:28:40.117Z,16.27
2022-12-03T10:31:15.610Z,13.80
2022-12-03T10:33:47.471Z,17.73
2022-12-03T10:36:21.624Z,15.57
2022-12-03T10:44:30.355Z,14.67
2022-12-03T10:47:07.630Z,15.80
2022-12-03T10:49:37.187Z,14.20
2022-12-03T10:52:10.458Z,15.40
2022-12-03T10:54:41.969Z,17.83
2022-12-03T10:57:13.662Z,17.13
2022-12-03T10:59:46.280Z,18.13
2022-12-03T11:07:51.898Z,16.67
2022-12-03T11:10:25.996Z,14.23
2022-12-03T11:13:29.404Z,16.93
2022-12-03T11:15:59.051Z,16.23
2022-12-03T11:19:06.278Z,15.73
2022-12-03T11:21:38.010Z,15.27
2022-12-03T11:27:32.180Z,13.93
2022-12-03T11:30:15.539Z,14.17
2022-12-03T11:33:10.469Z,17.30
2022-12-03T11:36:13.474Z,14.67
2022-12-03T11:38:56.412Z,13.53
2022-12-03T11:41:33.249Z,16.07
2022-12-03T11:47:22.368Z,17.43
2022-12-03T11:49:54.088Z,15.13
2022-12-03T11:52:32.556Z,17.57
2022-12-03T11:55:20.920Z,17.33
2022-12-03T11:57:54.559Z,16.43
2022-12-03T12:00:27.951Z,14.27
2022-12-03T12:06:17.374Z,15.80
2022-12-03T12:09:02.576Z,16.40
2022-12-03T12:11:36.088Z,15.53
2022-12-03T12:14:14.571Z,14.10
2022-12-03T12:16:55.181Z,20.97
2022-12-03T12:19:54.052Z,18.17
2022-12-03T12:28:22.877Z,15.13
2022-12-03T12:30:55.228Z,14.63
2022-12-03T12:33:29.349Z,15.60
2022-12-03T12:36:02.409Z,20.43
2022-12-03T12:38:34.099Z,14.17
2022-12-03T12:41:11.147Z,15.20
2022-12-03T12:43:49.054Z,15.27
2022-12-03T12:51:36.959Z,15.00
2022-12-03T12:54:17.455Z,15.53
2022-12-03T12:56:54.127Z,15.10
2022-12-03T12:59:27.496Z,17.73
2022-12-03T13:02:04.564Z,15.63
2022-12-03T13:04:41.049Z,16.03
2022-12-03T13:13:45.651Z,20.50
2022-12-03T13:16:21.276Z,17.60
2022-12-03T13:18:55.569Z,14.77
2022-12-03T13:21:44.649Z,20.53
2022-12-03T13:24:33.919Z,17.57
2022-12-03T13:27:37.137Z,18.30
2022-12-03T13:36:50.555Z,18.40
2022-12-03T13:39:31.775Z,17.83
2022-12-03T13:42:33.009Z,18.60
2022-12-03T13:45:05.868Z,17.10
2022-12-03T13:47:40.828Z,26.60
2022-12-03T13:50:23.857Z,17.90
2022-12-03T14:01:09.670Z,18.37
2022-12-03T14:03:43.339Z,18.00
2022-12-03T14:06:13.357Z,19.50
2022-12-03T14:08:42.719Z,18.30
2022-12-03T14:11:36.091Z,20.10
2022-12-03T14:14:11.890Z,17.23
2022-12-03T14:16:45.512Z,18.17
2022-12-03T14:27:08.786Z,16.97
2022-12-03T14:29:46.466Z,17.20
2022-12-03T14:32:19.960Z,19.73
2022-12-03T14:34:55.747Z,16.83
2022-12-03T14:37:27.698Z,18.13
2022-12-03T14:40:03.527Z,17.17
2022-12-03T14:42:35.752Z,17.23
2022-12-03T14:50:46.790Z,16.57
2022-12-03T14:53:21.501Z,17.50
2022-12-03T14:55:56.111Z,25.63
2022-12-03T14:58:27.237Z,17.80
2022-12-03T15:00:57.083Z,19.67
2022-12-03T15:03:27.807Z,16.50
2022-12-03T15:06:00.111Z,16.30
2022-12-03T15:12:08.287Z,16.97
2022-12-03T15:14:36.025Z,17.30
2022-12-03T15:17:05.252Z,16.03
2022-12-03T15:19:36.949Z,15.87
2022-12-03T15:22:07.529Z,17.80
2022-12-03T15:24:36.391Z,17.23
2022-12-03T15:27:09.569Z,16.80
2022-12-03T15:35:17.332Z,16.73
2022-12-03T15:37:46.848Z,15.50
2022-12-03T15:40:17.321Z,16.17
2022-12-03T15:42:45.400Z,17.87
2022-12-03T15:45:15.358Z,17.73
2022-12-03T15:47:45.658Z,17.07
2022-12-03T15:50:15.588Z,15.93
2022-12-03T16:00:40.244Z,15.67
2022-12-03T16:03:08.809Z,16.40
2022-12-03T16:05:36.560Z,17.97
2022-12-03T16:08:04.563Z,16.37
2022-12-03T16:10:32.648Z,16.77
2022-12-03T16:13:05.017Z,18.47
2022-12-03T16:15:35.847Z,15.97
2022-12-03T16:21:09.070Z,16.00
2022-12-03T16:23:39.576Z,15.20
2022-12-03T16:26:10.539Z,17.17
2022-12-03T16:28:41.837Z,17.43
2022-12-03T16:31:13.675Z,15.30
2022-12-03T16:33:42.669Z,15.63
2022-12-03T16:36:16.377Z,19.27
2022-12-03T16:44:54.624Z,16.20
2022-12-03T16:47:22.818Z,15.47
2022-12-03T16:49:52.103Z,16.07
2022-12-03T16:52:21.998Z,16.27
2022-12-03T16:54:53.788Z,15.43
2022-12-03T16:57:21.758Z,14.67
2022-12-03T16:59:50.843Z,18.03
2022-12-03T17:02:18.716Z,16.70
2022-12-03T17:10:21.928Z,17.27
2022-12-03T17:13:08.884Z,15.43
2022-12-03T17:15:37.130Z,17.33
2022-12-03T17:18:05.085Z,15.50
2022-12-03T17:20:32.832Z,15.57
2022-12-03T17:23:01.261Z,17.53
2022-12-03T17:25:30.447Z,15.70
2022-12-03T17:33:52.524Z,16.57
2022-12-03T17:36:20.832Z,16.33
2022-12-03T17:38:48.565Z,14.47
2022-12-03T17:41:15.795Z,19.30
2022-12-03T17:43:43.402Z,16.87
2022-12-03T17:46:11.487Z,16.17
2022-12-03T17:48:39.943Z,14.70
2022-12-03T17:51:08.512Z,15.30
2022-12-03T18:01:37.573Z,15.80
2022-12-03T18:04:05.873Z,14.10
2022-12-03T18:06:33.632Z,16.27
2022-12-03T18:09:01.251Z,16.47
2022-12-03T18:11:29.233Z,14.77
2022-12-03T18:13:56.660Z,15.73
2022-12-03T18:16:24.805Z,17.23
2022-12-03T18:18:57.110Z,16.50
2022-12-03T18:26:32.552Z,15.37
2022-12-03T18:29:00.471Z,17.03
2022-12-03T18:31:28.315Z,16.50
2022-12-03T18:33:56.142Z,15.20
2022-12-03T18:36:26.130Z,16.40
2022-12-03T18:38:55.203Z,15.37
2022-12-03T18:41:24.252Z,15.73
2022-12-03T18:43:52.905Z,16.57
2022-12-03T18:51:27.137Z,15.20
2022-12-03T18:53:54.790Z,16.67
2022-12-03T18:56:22.580Z,16.33
2022-12-03T18:58:50.033Z,17.97
2022-12-03T19:01:19.696Z,16.43
2022-12-03T19:03:47.827Z,15.03
2022-12-03T19:06:18.848Z,15.20
2022-12-03T19:08:53.500Z,16.13
2022-12-03T19:16:24.050Z,16.07
2022-12-03T19:18:52.663Z,15.43
2022-12-03T19:21:20.577Z,15.20
2022-12-03T19:24:22.174Z,16.10
2022-12-03T19:26:35.740Z,16.40
2022-12-03T19:29:03.393Z,26.30
2022-12-03T19:31:33.238Z,21.70
2022-12-03T19:39:07.386Z,15.83
2022-12-03T19:41:35.081Z,14.30
2022-12-03T19:44:07.755Z,14.10
2022-12-03T19:46:38.089Z,14.33
2022-12-03T19:49:08.528Z,14.60
2022-12-03T19:51:45.030Z,13.23
2022-12-03T19:54:15.687Z,14.83
2022-12-03T20:01:50.337Z,14.67
2022-12-03T20:04:19.139Z,16.20
2022-12-03T20:06:49.391Z,15.43
2022-12-03T20:09:21.898Z,13.87
2022-12-03T20:11:55.550Z,14.83
2022-12-03T20:14:31.222Z,13.93
2022-12-03T20:17:07.729Z,15.03
2022-12-03T20:24:47.630Z,14.50
2022-12-03T20:27:23.121Z,14.60
2022-12-03T20:29:54.033Z,14.40
2022-12-03T20:32:26.343Z,14.87
2022-12-03T20:34:57.405Z,14.70
2022-12-03T20:37:29.996Z,14.33
2022-12-03T20:40:01.486Z,13.83
2022-12-03T20:47:42.236Z,12.60
2022-12-03T20:50:13.613Z,18.50
2022-12-03T20:53:09.439Z,16.03
2022-12-03T20:55:41.247Z,15.20
2022-12-03T20:58:11.915Z,15.93
2022-12-03T21:00:45.274Z,12.43
2022-12-03T21:03:21.215Z,20.17
2022-12-03T21:08:41.526Z,14.63
2022-12-03T21:11:14.048Z,11.90
2022-12-03T21:13:43.143Z,13.40
2022-12-03T21:16:16.566Z,13.13
2022-12-03T21:18:46.556Z,14.17
2022-12-03T21:21:16.845Z,12.27
2022-12-03T21:23:45.763Z,12.23
2022-12-03T21:28:54.374Z,11.83
2022-12-03T21:31:27.686Z,13.90
2022-12-03T21:34:01.045Z,16.47
2022-12-03T21:36:29.125Z,12.70
2022-12-03T21:38:57.631Z,13.07
2022-12-03T21:41:29.726Z,20.50
2022-12-03T21:44:01.618Z,13.80
2022-12-03T21:49:52.442Z,11.50
2022-12-03T21:52:20.083Z,14.00
2022-12-03T21:54:50.666Z,12.67
2022-12-03T21:57:20.293Z,12.97
2022-12-03T21:59:49.945Z,12.83
2022-12-03T22:02:19.235Z,14.57
2022-12-03T22:04:57.340Z,21.77
2022-12-03T22:10:12.505Z,43.07
2022-12-03T22:12:41.467Z,61.97
2022-12-03T22:15:18.143Z,20.10
2022-12-03T22:17:47.764Z,21.20
2022-12-03T22:20:16.495Z,12.17
2022-12-03T22:22:48.984Z,13.47
2022-12-03T22:25:21.324Z,13.43
2022-12-03T22:32:57.357Z,15.03
2022-12-03T22:35:25.375Z,18.53
2022-12-03T22:37:53.812Z,13.80
2022-12-03T22:40:21.414Z,13.33
2022-12-03T22:42:51.299Z,12.87
2022-12-03T22:45:22.117Z,11.80
2022-12-03T22:47:49.866Z,12.67
2022-12-03T22:55:22.327Z,12.60
2022-12-03T22:57:50.078Z,12.03
2022-12-03T23:00:30.097Z,11.30
2022-12-03T23:02:58.581Z,12.23
2022-12-03T23:05:25.955Z,11.37
2022-12-03T23:07:53.949Z,12.43
2022-12-03T23:10:23.186Z,11.80
2022-12-03T23:17:59.269Z,10.53
2022-12-03T23:20:28.401Z,13.90
2022-12-03T23:22:56.256Z,16.20
2022-12-03T23:25:24.313Z,12.00
2022-12-03T23:27:52.248Z,12.70
2022-12-03T23:30:19.757Z,13.03
2022-12-03T23:32:47.164Z,10.90
2022-12-03T23:38:56.158Z,11.37
2022-12-03T23:41:24.853Z,10.53
2022-12-03T23:43:52.533Z,12.07
2022-12-03T23:46:22.040Z,11.13
2022-12-03T23:48:51.729Z,11.07
2022-12-03T23:51:22.096Z,11.13
2022-12-03T23:53:52.526Z,11.53
